sensor_id;sensor_type;location;lat;lon;timestamp;P1;durP1;ratioP1;P2;durP2;ratioP2
9076;SDS011;4574;51.072;17.174;2023-08-17T00:00:27;2.73;;;2.50;;
9076;SDS011;4574;51.072;17.174;2023-08-17T00:02:55;2.83;;;2.50;;
9076;SDS011;4574;51.072;17.174;2023-08-17T00:05:24;2.10;;;1.90;;
9076;SDS011;4574;51.072;17.174;2023-08-17T00:07:53;4.30;;;2.27;;
9076;SDS011;4574;51.072;17.174;2023-08-17T00:10:21;3.90;;;2.00;;
9076;SDS011;4574;51.072;17.174;2023-08-17T00:12:50;5.20;;;2.30;;
9076;SDS011;4574;51.072;17.174;2023-08-17T00:15:20;3.57;;;2.10;;
9076;SDS011;4574;51.072;17.174;2023-08-17T00:17:48;4.77;;;2.90;;
9076;SDS011;4574;51.072;17.174;2023-08-17T00:20:17;2.60;;;2.33;;
9076;SDS011;4574;51.072;17.174;2023-08-17T00:22:46;2.10;;;1.90;;
9076;SDS011;4574;51.072;17.174;2023-08-17T00:25:14;4.97;;;2.30;;
9076;SDS011;4574;51.072;17.174;2023-08-17T00:27:43;2.73;;;2.43;;
9076;SDS011;4574;51.072;17.174;2023-08-17T00:30:14;3.37;;;2.50;;
9076;SDS011;4574;51.072;17.174;2023-08-17T00:32:44;4.20;;;2.73;;
9076;SDS011;4574;51.072;17.174;2023-08-17T00:35:13;3.17;;;2.90;;
9076;SDS011;4574;51.072;17.174;2023-08-17T00:37:41;5.63;;;2.27;;
9076;SDS011;4574;51.072;17.174;2023-08-17T00:40:10;3.30;;;2.43;;
9076;SDS011;4574;51.072;17.174;2023-08-17T00:42:39;5.93;;;2.93;;
9076;SDS011;4574;51.072;17.174;2023-08-17T00:45:08;2.50;;;2.20;;
9076;SDS011;4574;51.072;17.174;2023-08-17T00:47:37;4.27;;;2.40;;
9076;SDS011;4574;51.072;17.174;2023-08-17T00:50:08;3.90;;;2.70;;
9076;SDS011;4574;51.072;17.174;2023-08-17T00:52:38;3.23;;;2.17;;
9076;SDS011;4574;51.072;17.174;2023-08-17T00:55:08;2.20;;;2.00;;
9076;SDS011;4574;51.072;17.174;2023-08-17T00:57:39;2.07;;;1.80;;
9076;SDS011;4574;51.072;17.174;2023-08-17T01:00:08;2.20;;;1.90;;
9076;SDS011;4574;51.072;17.174;2023-08-17T01:02:43;3.53;;;2.00;;
9076;SDS011;4574;51.072;17.174;2023-08-17T01:05:14;2.17;;;1.77;;
9076;SDS011;4574;51.072;17.174;2023-08-17T01:07:42;3.00;;;2.03;;
9076;SDS011;4574;51.072;17.174;2023-08-17T01:10:11;3.50;;;2.33;;
9076;SDS011;4574;51.072;17.174;2023-08-17T01:12:42;4.83;;;2.87;;
9076;SDS011;4574;51.072;17.174;2023-08-17T01:15:17;6.23;;;3.20;;
9076;SDS011;4574;51.072;17.174;2023-08-17T01:17:51;6.53;;;2.60;;
9076;SDS011;4574;51.072;17.174;2023-08-17T01:20:25;6.27;;;2.60;;
9076;SDS011;4574;51.072;17.174;2023-08-17T01:22:55;4.00;;;2.67;;
9076;SDS011;4574;51.072;17.174;2023-08-17T01:25:28;3.43;;;2.90;;
9076;SDS011;4574;51.072;17.174;2023-08-17T01:27:56;5.67;;;2.70;;
9076;SDS011;4574;51.072;17.174;2023-08-17T01:30:25;5.60;;;2.57;;
9076;SDS011;4574;51.072;17.174;2023-08-17T01:32:59;5.10;;;2.83;;
9076;SDS011;4574;51.072;17.174;2023-08-17T01:35:37;4.33;;;3.00;;
9076;SDS011;4574;51.072;17.174;2023-08-17T01:38:09;6.00;;;2.50;;
9076;SDS011;4574;51.072;17.174;2023-08-17T01:40:43;3.00;;;2.63;;
9076;SDS011;4574;51.072;17.174;2023-08-17T01:43:13;2.70;;;2.50;;
9076;SDS011;4574;51.072;17.174;2023-08-17T01:45:44;4.40;;;3.00;;
9076;SDS011;4574;51.072;17.174;2023-08-17T01:48:12;5.30;;;3.00;;
9076;SDS011;4574;51.072;17.174;2023-08-17T01:50:41;4.50;;;2.70;;
9076;SDS011;4574;51.072;17.174;2023-08-17T01:53:09;5.13;;;2.77;;
9076;SDS011;4574;51.072;17.174;2023-08-17T01:55:38;3.70;;;3.00;;
9076;SDS011;4574;51.072;17.174;2023-08-17T01:58:08;5.03;;;3.10;;
9076;SDS011;4574;51.072;17.174;2023-08-17T02:00:36;4.53;;;3.07;;
9076;SDS011;4574;51.072;17.174;2023-08-17T02:03:05;4.67;;;3.27;;
9076;SDS011;4574;51.072;17.174;2023-08-17T02:05:34;4.17;;;3.47;;
9076;SDS011;4574;51.072;17.174;2023-08-17T02:08:03;3.40;;;2.87;;
9076;SDS011;4574;51.072;17.174;2023-08-17T02:10:31;6.70;;;3.17;;
9076;SDS011;4574;51.072;17.174;2023-08-17T02:13:00;4.03;;;2.90;;
9076;SDS011;4574;51.072;17.174;2023-08-17T02:15:44;4.80;;;2.67;;
9076;SDS011;4574;51.072;17.174;2023-08-17T02:18:14;3.27;;;2.90;;
9076;SDS011;4574;51.072;17.174;2023-08-17T02:20:42;4.23;;;2.53;;
9076;SDS011;4574;51.072;17.174;2023-08-17T02:23:11;3.93;;;2.90;;
9076;SDS011;4574;51.072;17.174;2023-08-17T02:25:39;5.07;;;2.50;;
9076;SDS011;4574;51.072;17.174;2023-08-17T02:28:08;5.13;;;2.60;;
9076;SDS011;4574;51.072;17.174;2023-08-17T02:30:36;4.43;;;2.50;;
9076;SDS011;4574;51.072;17.174;2023-08-17T02:33:07;4.77;;;2.90;;
9076;SDS011;4574;51.072;17.174;2023-08-17T02:35:35;4.50;;;2.80;;
9076;SDS011;4574;51.072;17.174;2023-08-17T02:38:04;3.30;;;2.40;;
9076;SDS011;4574;51.072;17.174;2023-08-17T02:40:32;4.97;;;2.60;;
9076;SDS011;4574;51.072;17.174;2023-08-17T02:43:01;5.23;;;3.07;;
9076;SDS011;4574;51.072;17.174;2023-08-17T02:45:29;3.90;;;2.40;;
9076;SDS011;4574;51.072;17.174;2023-08-17T02:47:57;2.63;;;2.20;;
9076;SDS011;4574;51.072;17.174;2023-08-17T02:50:27;3.07;;;2.13;;
9076;SDS011;4574;51.072;17.174;2023-08-17T02:52:56;3.03;;;2.33;;
9076;SDS011;4574;51.072;17.174;2023-08-17T02:55:24;4.10;;;2.67;;
9076;SDS011;4574;51.072;17.174;2023-08-17T02:57:53;3.07;;;2.20;;
9076;SDS011;4574;51.072;17.174;2023-08-17T03:00:22;3.23;;;2.43;;
9076;SDS011;4574;51.072;17.174;2023-08-17T03:02:50;2.33;;;2.13;;
9076;SDS011;4574;51.072;17.174;2023-08-17T03:05:20;2.23;;;1.97;;
9076;SDS011;4574;51.072;17.174;2023-08-17T03:07:50;3.63;;;3.03;;
9076;SDS011;4574;51.072;17.174;2023-08-17T03:10:19;2.70;;;2.20;;
9076;SDS011;4574;51.072;17.174;2023-08-17T03:12:47;4.40;;;2.30;;
9076;SDS011;4574;51.072;17.174;2023-08-17T03:15:16;3.57;;;2.40;;
9076;SDS011;4574;51.072;17.174;2023-08-17T03:17:44;3.03;;;2.70;;
9076;SDS011;4574;51.072;17.174;2023-08-17T03:20:13;3.03;;;2.40;;
9076;SDS011;4574;51.072;17.174;2023-08-17T03:22:41;2.47;;;2.27;;
9076;SDS011;4574;51.072;17.174;2023-08-17T03:25:11;3.43;;;2.50;;
9076;SDS011;4574;51.072;17.174;2023-08-17T03:27:40;2.30;;;2.17;;
9076;SDS011;4574;51.072;17.174;2023-08-17T03:30:08;2.97;;;2.30;;
9076;SDS011;4574;51.072;17.174;2023-08-17T03:32:37;4.13;;;2.50;;
9076;SDS011;4574;51.072;17.174;2023-08-17T03:35:06;3.00;;;2.67;;
9076;SDS011;4574;51.072;17.174;2023-08-17T03:37:35;3.43;;;2.63;;
9076;SDS011;4574;51.072;17.174;2023-08-17T03:40:06;2.73;;;2.27;;
9076;SDS011;4574;51.072;17.174;2023-08-17T03:42:37;2.40;;;2.10;;
9076;SDS011;4574;51.072;17.174;2023-08-17T03:45:06;5.63;;;2.80;;
9076;SDS011;4574;51.072;17.174;2023-08-17T03:47:35;3.03;;;2.70;;
9076;SDS011;4574;51.072;17.174;2023-08-17T03:50:03;3.27;;;2.93;;
9076;SDS011;4574;51.072;17.174;2023-08-17T03:52:33;3.73;;;2.47;;
9076;SDS011;4574;51.072;17.174;2023-08-17T03:55:01;6.00;;;2.83;;
9076;SDS011;4574;51.072;17.174;2023-08-17T03:57:32;10.23;;;3.00;;
9076;SDS011;4574;51.072;17.174;2023-08-17T04:00:06;3.63;;;2.73;;
9076;SDS011;4574;51.072;17.174;2023-08-17T04:02:37;5.37;;;2.57;;
9076;SDS011;4574;51.072;17.174;2023-08-17T04:05:05;3.43;;;2.80;;
9076;SDS011;4574;51.072;17.174;2023-08-17T04:07:34;5.10;;;2.40;;
9076;SDS011;4574;51.072;17.174;2023-08-17T04:10:04;2.73;;;2.50;;
9076;SDS011;4574;51.072;17.174;2023-08-17T04:12:33;5.60;;;2.67;;
9076;SDS011;4574;51.072;17.174;2023-08-17T04:15:02;5.97;;;2.80;;
9076;SDS011;4574;51.072;17.174;2023-08-17T04:17:32;3.43;;;2.53;;
9076;SDS011;4574;51.072;17.174;2023-08-17T04:20:01;5.17;;;2.67;;
9076;SDS011;4574;51.072;17.174;2023-08-17T04:22:30;2.60;;;2.40;;
9076;SDS011;4574;51.072;17.174;2023-08-17T04:24:59;4.43;;;2.80;;
9076;SDS011;4574;51.072;17.174;2023-08-17T04:27:27;3.50;;;3.20;;
9076;SDS011;4574;51.072;17.174;2023-08-17T04:29:56;5.23;;;2.80;;
9076;SDS011;4574;51.072;17.174;2023-08-17T04:32:25;3.67;;;3.00;;
9076;SDS011;4574;51.072;17.174;2023-08-17T04:34:55;3.43;;;2.83;;
9076;SDS011;4574;51.072;17.174;2023-08-17T04:37:24;4.30;;;2.40;;
9076;SDS011;4574;51.072;17.174;2023-08-17T04:39:53;3.50;;;3.03;;
9076;SDS011;4574;51.072;17.174;2023-08-17T04:42:21;4.87;;;2.80;;
9076;SDS011;4574;51.072;17.174;2023-08-17T04:44:51;3.00;;;2.73;;
9076;SDS011;4574;51.072;17.174;2023-08-17T04:47:19;4.27;;;2.70;;
9076;SDS011;4574;51.072;17.174;2023-08-17T04:49:48;9.43;;;2.90;;
9076;SDS011;4574;51.072;17.174;2023-08-17T04:52:18;4.30;;;3.10;;
9076;SDS011;4574;51.072;17.174;2023-08-17T04:54:47;3.40;;;2.60;;
9076;SDS011;4574;51.072;17.174;2023-08-17T04:57:15;2.83;;;2.63;;
9076;SDS011;4574;51.072;17.174;2023-08-17T04:59:44;3.20;;;2.90;;
9076;SDS011;4574;51.072;17.174;2023-08-17T05:02:12;2.83;;;2.63;;
9076;SDS011;4574;51.072;17.174;2023-08-17T05:04:41;4.13;;;3.30;;
9076;SDS011;4574;51.072;17.174;2023-08-17T05:07:09;6.77;;;3.67;;
9076;SDS011;4574;51.072;17.174;2023-08-17T05:09:39;3.80;;;3.30;;
9076;SDS011;4574;51.072;17.174;2023-08-17T05:12:08;4.40;;;3.63;;
9076;SDS011;4574;51.072;17.174;2023-08-17T05:14:36;6.70;;;4.07;;
9076;SDS011;4574;51.072;17.174;2023-08-17T05:17:05;5.13;;;4.10;;
9076;SDS011;4574;51.072;17.174;2023-08-17T05:19:33;5.70;;;4.13;;
9076;SDS011;4574;51.072;17.174;2023-08-17T05:22:02;5.93;;;4.10;;
9076;SDS011;4574;51.072;17.174;2023-08-17T05:24:30;10.33;;;3.93;;
9076;SDS011;4574;51.072;17.174;2023-08-17T05:27:00;8.47;;;4.20;;
9076;SDS011;4574;51.072;17.174;2023-08-17T05:29:28;5.13;;;4.13;;
9076;SDS011;4574;51.072;17.174;2023-08-17T05:31:58;5.03;;;4.00;;
9076;SDS011;4574;51.072;17.174;2023-08-17T05:34:27;4.37;;;3.70;;
9076;SDS011;4574;51.072;17.174;2023-08-17T05:36:55;5.60;;;4.17;;
9076;SDS011;4574;51.072;17.174;2023-08-17T05:39:24;6.03;;;3.57;;
9076;SDS011;4574;51.072;17.174;2023-08-17T05:41:52;7.57;;;3.63;;
9076;SDS011;4574;51.072;17.174;2023-08-17T05:44:22;6.47;;;3.97;;
9076;SDS011;4574;51.072;17.174;2023-08-17T05:46:51;4.90;;;3.63;;
9076;SDS011;4574;51.072;17.174;2023-08-17T05:49:19;7.10;;;3.10;;
9076;SDS011;4574;51.072;17.174;2023-08-17T05:51:48;5.43;;;3.43;;
9076;SDS011;4574;51.072;17.174;2023-08-17T05:54:16;3.17;;;2.87;;
9076;SDS011;4574;51.072;17.174;2023-08-17T05:56:45;4.07;;;2.80;;
9076;SDS011;4574;51.072;17.174;2023-08-17T05:59:14;3.67;;;3.37;;
9076;SDS011;4574;51.072;17.174;2023-08-17T06:01:44;5.10;;;2.80;;
9076;SDS011;4574;51.072;17.174;2023-08-17T06:04:12;4.43;;;2.97;;
9076;SDS011;4574;51.072;17.174;2023-08-17T06:06:40;4.13;;;3.10;;
9076;SDS011;4574;51.072;17.174;2023-08-17T06:09:09;5.07;;;3.20;;
9076;SDS011;4574;51.072;17.174;2023-08-17T06:11:38;5.23;;;3.90;;
9076;SDS011;4574;51.072;17.174;2023-08-17T06:14:06;5.13;;;3.23;;
9076;SDS011;4574;51.072;17.174;2023-08-17T06:16:35;3.27;;;2.97;;
9076;SDS011;4574;51.072;17.174;2023-08-17T06:19:05;3.23;;;2.93;;
9076;SDS011;4574;51.072;17.174;2023-08-17T06:21:33;4.70;;;3.20;;
9076;SDS011;4574;51.072;17.174;2023-08-17T06:24:02;8.23;;;3.77;;
9076;SDS011;4574;51.072;17.174;2023-08-17T06:26:31;5.53;;;3.50;;
9076;SDS011;4574;51.072;17.174;2023-08-17T06:28:59;5.10;;;4.00;;
9076;SDS011;4574;51.072;17.174;2023-08-17T06:31:29;3.80;;;3.23;;
9076;SDS011;4574;51.072;17.174;2023-08-17T06:33:58;3.33;;;3.03;;
9076;SDS011;4574;51.072;17.174;2023-08-17T06:36:30;5.80;;;3.17;;
9076;SDS011;4574;51.072;17.174;2023-08-17T06:38:59;4.53;;;3.67;;
9076;SDS011;4574;51.072;17.174;2023-08-17T06:41:29;4.23;;;3.50;;
9076;SDS011;4574;51.072;17.174;2023-08-17T06:43:58;5.20;;;3.20;;
9076;SDS011;4574;51.072;17.174;2023-08-17T06:46:26;4.07;;;2.93;;
9076;SDS011;4574;51.072;17.174;2023-08-17T06:48:55;4.13;;;3.73;;
9076;SDS011;4574;51.072;17.174;2023-08-17T06:51:23;3.47;;;2.90;;
9076;SDS011;4574;51.072;17.174;2023-08-17T06:53:53;3.73;;;2.87;;
9076;SDS011;4574;51.072;17.174;2023-08-17T06:56:22;3.20;;;2.90;;
9076;SDS011;4574;51.072;17.174;2023-08-17T06:58:50;3.00;;;2.80;;
9076;SDS011;4574;51.072;17.174;2023-08-17T07:01:19;4.07;;;2.97;;
9076;SDS011;4574;51.072;17.174;2023-08-17T07:03:48;4.50;;;3.20;;
9076;SDS011;4574;51.072;17.174;2023-08-17T07:06:16;4.43;;;2.73;;
9076;SDS011;4574;51.072;17.174;2023-08-17T07:08:45;2.97;;;2.43;;
9076;SDS011;4574;51.072;17.174;2023-08-17T07:11:15;4.87;;;2.73;;
9076;SDS011;4574;51.072;17.174;2023-08-17T07:13:45;3.80;;;2.60;;
9076;SDS011;4574;51.072;17.174;2023-08-17T07:16:17;2.50;;;2.30;;
9076;SDS011;4574;51.072;17.174;2023-08-17T07:18:47;2.50;;;2.30;;
9076;SDS011;4574;51.072;17.174;2023-08-17T07:21:15;2.70;;;2.43;;
9076;SDS011;4574;51.072;17.174;2023-08-17T07:23:44;3.43;;;2.70;;
9076;SDS011;4574;51.072;17.174;2023-08-17T07:26:13;5.37;;;2.47;;
9076;SDS011;4574;51.072;17.174;2023-08-17T07:28:43;3.27;;;2.50;;
9076;SDS011;4574;51.072;17.174;2023-08-17T07:31:12;2.73;;;2.30;;
9076;SDS011;4574;51.072;17.174;2023-08-17T07:33:41;6.80;;;2.60;;
9076;SDS011;4574;51.072;17.174;2023-08-17T07:36:09;4.13;;;2.50;;
9076;SDS011;4574;51.072;17.174;2023-08-17T07:38:41;3.47;;;2.50;;
9076;SDS011;4574;51.072;17.174;2023-08-17T07:41:09;4.63;;;2.73;;
9076;SDS011;4574;51.072;17.174;2023-08-17T07:43:38;3.33;;;2.53;;
9076;SDS011;4574;51.072;17.174;2023-08-17T07:46:08;2.77;;;2.53;;
9076;SDS011;4574;51.072;17.174;2023-08-17T07:48:36;5.17;;;2.53;;
9076;SDS011;4574;51.072;17.174;2023-08-17T07:51:05;6.17;;;2.70;;
9076;SDS011;4574;51.072;17.174;2023-08-17T07:53:34;2.93;;;2.60;;
9076;SDS011;4574;51.072;17.174;2023-08-17T07:56:02;2.97;;;2.67;;
9076;SDS011;4574;51.072;17.174;2023-08-17T07:58:31;4.33;;;2.33;;
9076;SDS011;4574;51.072;17.174;2023-08-17T08:00:59;2.40;;;2.03;;
9076;SDS011;4574;51.072;17.174;2023-08-17T08:03:32;2.73;;;2.27;;
9076;SDS011;4574;51.072;17.174;2023-08-17T08:06:00;3.07;;;2.60;;
9076;SDS011;4574;51.072;17.174;2023-08-17T08:08:29;5.37;;;2.47;;
9076;SDS011;4574;51.072;17.174;2023-08-17T08:10:58;3.40;;;2.53;;
9076;SDS011;4574;51.072;17.174;2023-08-17T08:13:26;3.70;;;2.40;;
9076;SDS011;4574;51.072;17.174;2023-08-17T08:15:55;4.33;;;2.77;;
9076;SDS011;4574;51.072;17.174;2023-08-17T08:18:23;2.83;;;2.30;;
9076;SDS011;4574;51.072;17.174;2023-08-17T08:20:53;2.63;;;2.43;;
9076;SDS011;4574;51.072;17.174;2023-08-17T08:23:22;2.50;;;2.30;;
9076;SDS011;4574;51.072;17.174;2023-08-17T08:25:50;3.50;;;2.90;;
9076;SDS011;4574;51.072;17.174;2023-08-17T08:28:19;4.07;;;2.60;;
9076;SDS011;4574;51.072;17.174;2023-08-17T08:30:47;3.73;;;2.73;;
9076;SDS011;4574;51.072;17.174;2023-08-17T08:33:15;3.87;;;2.53;;
9076;SDS011;4574;51.072;17.174;2023-08-17T08:35:44;2.77;;;2.57;;
9076;SDS011;4574;51.072;17.174;2023-08-17T08:38:15;4.27;;;2.70;;
9076;SDS011;4574;51.072;17.174;2023-08-17T08:40:44;2.40;;;2.20;;
9076;SDS011;4574;51.072;17.174;2023-08-17T08:43:15;2.60;;;2.40;;
9076;SDS011;4574;51.072;17.174;2023-08-17T08:45:44;2.40;;;2.20;;
9076;SDS011;4574;51.072;17.174;2023-08-17T08:48:13;3.87;;;2.40;;
9076;SDS011;4574;51.072;17.174;2023-08-17T08:50:43;2.93;;;2.37;;
9076;SDS011;4574;51.072;17.174;2023-08-17T08:53:14;3.33;;;2.40;;
9076;SDS011;4574;51.072;17.174;2023-08-17T08:55:47;4.17;;;2.67;;
9076;SDS011;4574;51.072;17.174;2023-08-17T08:58:21;4.10;;;2.67;;
9076;SDS011;4574;51.072;17.174;2023-08-17T09:00:49;3.93;;;2.30;;
9076;SDS011;4574;51.072;17.174;2023-08-17T09:03:18;2.47;;;2.17;;
9076;SDS011;4574;51.072;17.174;2023-08-17T09:05:48;3.80;;;2.23;;
9076;SDS011;4574;51.072;17.174;2023-08-17T09:08:20;5.03;;;2.50;;
9076;SDS011;4574;51.072;17.174;2023-08-17T09:10:49;3.07;;;2.23;;
9076;SDS011;4574;51.072;17.174;2023-08-17T09:13:18;3.50;;;2.40;;
9076;SDS011;4574;51.072;17.174;2023-08-17T09:15:46;3.50;;;2.57;;
9076;SDS011;4574;51.072;17.174;2023-08-17T09:18:15;3.17;;;2.70;;
9076;SDS011;4574;51.072;17.174;2023-08-17T09:20:45;2.97;;;2.30;;
9076;SDS011;4574;51.072;17.174;2023-08-17T09:23:15;2.90;;;2.60;;
9076;SDS011;4574;51.072;17.174;2023-08-17T09:25:48;4.00;;;2.70;;
9076;SDS011;4574;51.072;17.174;2023-08-17T09:28:19;5.37;;;2.70;;
9076;SDS011;4574;51.072;17.174;2023-08-17T09:30:53;2.57;;;2.37;;
9076;SDS011;4574;51.072;17.174;2023-08-17T09:33:23;3.07;;;2.77;;
9076;SDS011;4574;51.072;17.174;2023-08-17T09:35:53;6.10;;;2.80;;
9076;SDS011;4574;51.072;17.174;2023-08-17T09:38:25;4.63;;;2.50;;
9076;SDS011;4574;51.072;17.174;2023-08-17T09:40:57;4.00;;;2.70;;
9076;SDS011;4574;51.072;17.174;2023-08-17T09:43:26;3.20;;;2.30;;
9076;SDS011;4574;51.072;17.174;2023-08-17T09:45:57;2.33;;;2.13;;
9076;SDS011;4574;51.072;17.174;2023-08-17T09:48:28;2.93;;;2.60;;
9076;SDS011;4574;51.072;17.174;2023-08-17T09:50:59;3.47;;;2.60;;
9076;SDS011;4574;51.072;17.174;2023-08-17T09:53:28;3.30;;;2.67;;
9076;SDS011;4574;51.072;17.174;2023-08-17T09:55:58;3.77;;;2.57;;
9076;SDS011;4574;51.072;17.174;2023-08-17T09:58:28;4.43;;;2.20;;
9076;SDS011;4574;51.072;17.174;2023-08-17T10:00:57;2.60;;;2.40;;
9076;SDS011;4574;51.072;17.174;2023-08-17T10:03:29;4.53;;;2.33;;
9076;SDS011;4574;51.072;17.174;2023-08-17T10:06:03;2.60;;;2.40;;
9076;SDS011;4574;51.072;17.174;2023-08-17T10:08:33;2.93;;;2.50;;
9076;SDS011;4574;51.072;17.174;2023-08-17T10:11:08;4.93;;;2.60;;
9076;SDS011;4574;51.072;17.174;2023-08-17T10:13:39;4.03;;;2.30;;
9076;SDS011;4574;51.072;17.174;2023-08-17T10:16:14;3.37;;;2.30;;
9076;SDS011;4574;51.072;17.174;2023-08-17T10:18:58;3.50;;;2.60;;
9076;SDS011;4574;51.072;17.174;2023-08-17T10:21:36;4.47;;;2.50;;
9076;SDS011;4574;51.072;17.174;2023-08-17T10:24:12;3.03;;;2.30;;
9076;SDS011;4574;51.072;17.174;2023-08-17T10:26:42;3.90;;;2.60;;
9076;SDS011;4574;51.072;17.174;2023-08-17T10:29:12;2.50;;;2.30;;
9076;SDS011;4574;51.072;17.174;2023-08-17T10:31:43;5.00;;;2.20;;
9076;SDS011;4574;51.072;17.174;2023-08-17T10:34:13;3.37;;;2.20;;
9076;SDS011;4574;51.072;17.174;2023-08-17T10:36:42;4.90;;;2.67;;
9076;SDS011;4574;51.072;17.174;2023-08-17T10:39:18;2.90;;;2.60;;
9076;SDS011;4574;51.072;17.174;2023-08-17T10:41:55;3.10;;;2.60;;
9076;SDS011;4574;51.072;17.174;2023-08-17T10:44:40;4.50;;;2.50;;
9076;SDS011;4574;51.072;17.174;2023-08-17T10:47:18;3.03;;;2.33;;
9076;SDS011;4574;51.072;17.174;2023-08-17T10:49:51;3.57;;;2.20;;
9076;SDS011;4574;51.072;17.174;2023-08-17T10:52:26;3.23;;;2.20;;
9076;SDS011;4574;51.072;17.174;2023-08-17T10:54:58;2.30;;;2.20;;
9076;SDS011;4574;51.072;17.174;2023-08-17T10:57:30;3.30;;;2.37;;
9076;SDS011;4574;51.072;17.174;2023-08-17T11:00:06;6.27;;;2.80;;
9076;SDS011;4574;51.072;17.174;2023-08-17T11:02:53;2.43;;;2.20;;
9076;SDS011;4574;51.072;17.174;2023-08-17T11:05:36;2.67;;;2.43;;
9076;SDS011;4574;51.072;17.174;2023-08-17T11:08:06;4.53;;;2.37;;
9076;SDS011;4574;51.072;17.174;2023-08-17T11:10:36;2.70;;;2.23;;
9076;SDS011;4574;51.072;17.174;2023-08-17T11:13:07;3.27;;;2.23;;
9076;SDS011;4574;51.072;17.174;2023-08-17T11:15:37;1.93;;;1.83;;
9076;SDS011;4574;51.072;17.174;2023-08-17T11:18:09;2.50;;;2.30;;
9076;SDS011;4574;51.072;17.174;2023-08-17T11:20:38;2.43;;;2.07;;
9076;SDS011;4574;51.072;17.174;2023-08-17T11:23:08;2.00;;;1.90;;
9076;SDS011;4574;51.072;17.174;2023-08-17T11:25:38;2.50;;;2.20;;
9076;SDS011;4574;51.072;17.174;2023-08-17T11:28:08;2.30;;;2.10;;
9076;SDS011;4574;51.072;17.174;2023-08-17T11:30:37;4.17;;;2.10;;
9076;SDS011;4574;51.072;17.174;2023-08-17T11:33:06;5.23;;;3.00;;
9076;SDS011;4574;51.072;17.174;2023-08-17T11:35:35;2.43;;;2.23;;
9076;SDS011;4574;51.072;17.174;2023-08-17T11:38:06;4.67;;;2.47;;
9076;SDS011;4574;51.072;17.174;2023-08-17T11:40:35;1.93;;;1.83;;
9076;SDS011;4574;51.072;17.174;2023-08-17T11:43:04;2.30;;;2.17;;
9076;SDS011;4574;51.072;17.174;2023-08-17T11:45:35;2.77;;;2.50;;
9076;SDS011;4574;51.072;17.174;2023-08-17T11:48:04;2.43;;;2.23;;
9076;SDS011;4574;51.072;17.174;2023-08-17T11:50:34;2.50;;;2.30;;
9076;SDS011;4574;51.072;17.174;2023-08-17T11:53:05;2.63;;;2.40;;
9076;SDS011;4574;51.072;17.174;2023-08-17T11:55:34;2.00;;;1.90;;
9076;SDS011;4574;51.072;17.174;2023-08-17T11:58:02;3.83;;;2.30;;
9076;SDS011;4574;51.072;17.174;2023-08-17T12:00:39;2.40;;;2.20;;
9076;SDS011;4574;51.072;17.174;2023-08-17T12:03:14;2.80;;;2.50;;
9076;SDS011;4574;51.072;17.174;2023-08-17T12:05:43;3.43;;;2.37;;
9076;SDS011;4574;51.072;17.174;2023-08-17T12:08:13;4.03;;;2.17;;
9076;SDS011;4574;51.072;17.174;2023-08-17T12:10:42;2.37;;;2.13;;
9076;SDS011;4574;51.072;17.174;2023-08-17T12:13:12;2.70;;;2.40;;
9076;SDS011;4574;51.072;17.174;2023-08-17T12:15:42;3.73;;;2.30;;
9076;SDS011;4574;51.072;17.174;2023-08-17T12:18:11;3.53;;;2.60;;
9076;SDS011;4574;51.072;17.174;2023-08-17T12:20:40;2.50;;;2.30;;
9076;SDS011;4574;51.072;17.174;2023-08-17T12:23:11;2.47;;;2.17;;
9076;SDS011;4574;51.072;17.174;2023-08-17T12:25:40;3.23;;;2.53;;
9076;SDS011;4574;51.072;17.174;2023-08-17T12:28:09;2.23;;;2.10;;
9076;SDS011;4574;51.072;17.174;2023-08-17T12:30:40;3.77;;;2.80;;
9076;SDS011;4574;51.072;17.174;2023-08-17T12:33:10;3.53;;;2.60;;
9076;SDS011;4574;51.072;17.174;2023-08-17T12:35:39;4.70;;;2.50;;
9076;SDS011;4574;51.072;17.174;2023-08-17T12:38:07;2.70;;;2.30;;
9076;SDS011;4574;51.072;17.174;2023-08-17T12:40:36;3.73;;;2.50;;
9076;SDS011;4574;51.072;17.174;2023-08-17T12:43:04;3.20;;;2.80;;
9076;SDS011;4574;51.072;17.174;2023-08-17T12:45:33;4.50;;;2.60;;
9076;SDS011;4574;51.072;17.174;2023-08-17T12:48:01;2.70;;;2.50;;
9076;SDS011;4574;51.072;17.174;2023-08-17T12:50:32;3.10;;;2.40;;
9076;SDS011;4574;51.072;17.174;2023-08-17T12:53:00;3.30;;;2.40;;
9076;SDS011;4574;51.072;17.174;2023-08-17T12:55:29;3.20;;;2.50;;
9076;SDS011;4574;51.072;17.174;2023-08-17T12:57:57;2.87;;;2.57;;
9076;SDS011;4574;51.072;17.174;2023-08-17T13:00:27;3.63;;;2.40;;
9076;SDS011;4574;51.072;17.174;2023-08-17T13:02:56;2.93;;;2.40;;
9076;SDS011;4574;51.072;17.174;2023-08-17T13:05:24;2.53;;;2.33;;
9076;SDS011;4574;51.072;17.174;2023-08-17T13:07:54;3.43;;;2.23;;
9076;SDS011;4574;51.072;17.174;2023-08-17T13:10:23;2.87;;;2.67;;
9076;SDS011;4574;51.072;17.174;2023-08-17T13:12:51;2.97;;;2.60;;
9076;SDS011;4574;51.072;17.174;2023-08-17T13:15:23;2.80;;;2.60;;
9076;SDS011;4574;51.072;17.174;2023-08-17T13:17:51;6.13;;;2.80;;
9076;SDS011;4574;51.072;17.174;2023-08-17T13:20:20;3.60;;;2.73;;
9076;SDS011;4574;51.072;17.174;2023-08-17T13:22:49;2.70;;;2.50;;
9076;SDS011;4574;51.072;17.174;2023-08-17T13:25:19;3.43;;;2.77;;
9076;SDS011;4574;51.072;17.174;2023-08-17T13:27:47;4.37;;;2.60;;
9076;SDS011;4574;51.072;17.174;2023-08-17T13:30:15;3.50;;;2.40;;
9076;SDS011;4574;51.072;17.174;2023-08-17T13:32:44;3.20;;;2.90;;
9076;SDS011;4574;51.072;17.174;2023-08-17T13:35:13;2.87;;;2.60;;
9076;SDS011;4574;51.072;17.174;2023-08-17T13:37:42;2.80;;;2.60;;
9076;SDS011;4574;51.072;17.174;2023-08-17T13:40:10;3.10;;;2.63;;
9076;SDS011;4574;51.072;17.174;2023-08-17T13:42:40;3.33;;;3.03;;
9076;SDS011;4574;51.072;17.174;2023-08-17T13:45:09;3.40;;;3.10;;
9076;SDS011;4574;51.072;17.174;2023-08-17T13:47:38;3.10;;;2.80;;
9076;SDS011;4574;51.072;17.174;2023-08-17T13:50:06;3.63;;;2.83;;
9076;SDS011;4574;51.072;17.174;2023-08-17T13:52:35;4.30;;;2.77;;
9076;SDS011;4574;51.072;17.174;2023-08-17T13:55:04;3.80;;;3.10;;
9076;SDS011;4574;51.072;17.174;2023-08-17T13:57:33;3.73;;;2.70;;
9076;SDS011;4574;51.072;17.174;2023-08-17T14:00:04;3.70;;;3.00;;
9076;SDS011;4574;51.072;17.174;2023-08-17T14:02:33;4.13;;;2.77;;
9076;SDS011;4574;51.072;17.174;2023-08-17T14:05:03;3.33;;;3.03;;
9076;SDS011;4574;51.072;17.174;2023-08-17T14:07:32;3.53;;;3.23;;
9076;SDS011;4574;51.072;17.174;2023-08-17T14:10:01;5.07;;;3.37;;
9076;SDS011;4574;51.072;17.174;2023-08-17T14:12:37;6.03;;;3.50;;
9076;SDS011;4574;51.072;17.174;2023-08-17T14:15:08;4.77;;;3.20;;
9076;SDS011;4574;51.072;17.174;2023-08-17T14:17:37;3.30;;;3.10;;
9076;SDS011;4574;51.072;17.174;2023-08-17T14:20:05;3.63;;;2.83;;
9076;SDS011;4574;51.072;17.174;2023-08-17T14:22:35;4.57;;;3.00;;
9076;SDS011;4574;51.072;17.174;2023-08-17T14:25:03;3.70;;;2.70;;
9076;SDS011;4574;51.072;17.174;2023-08-17T14:27:32;3.10;;;2.90;;
9076;SDS011;4574;51.072;17.174;2023-08-17T14:30:01;3.20;;;2.90;;
9076;SDS011;4574;51.072;17.174;2023-08-17T14:32:32;3.03;;;2.73;;
9076;SDS011;4574;51.072;17.174;2023-08-17T14:35:01;3.33;;;2.70;;
9076;SDS011;4574;51.072;17.174;2023-08-17T14:37:30;2.97;;;2.67;;
9076;SDS011;4574;51.072;17.174;2023-08-17T14:39:59;3.43;;;2.90;;
9076;SDS011;4574;51.072;17.174;2023-08-17T14:42:27;4.10;;;3.30;;
9076;SDS011;4574;51.072;17.174;2023-08-17T14:44:56;2.93;;;2.70;;
9076;SDS011;4574;51.072;17.174;2023-08-17T14:47:24;4.03;;;3.10;;
9076;SDS011;4574;51.072;17.174;2023-08-17T14:49:55;4.90;;;3.07;;
9076;SDS011;4574;51.072;17.174;2023-08-17T14:52:23;7.90;;;1.90;;
9076;SDS011;4574;51.072;17.174;2023-08-17T14:54:59;3.63;;;1.80;;
9076;SDS011;4574;51.072;17.174;2023-08-17T14:57:28;3.13;;;1.77;;
9076;SDS011;4574;51.072;17.174;2023-08-17T14:59:56;3.17;;;1.60;;
9076;SDS011;4574;51.072;17.174;2023-08-17T15:02:25;5.40;;;1.40;;
9076;SDS011;4574;51.072;17.174;2023-08-17T15:04:55;2.50;;;1.53;;
9076;SDS011;4574;51.072;17.174;2023-08-17T15:07:24;4.00;;;2.00;;
9076;SDS011;4574;51.072;17.174;2023-08-17T15:09:53;5.33;;;2.50;;
9076;SDS011;4574;51.072;17.174;2023-08-17T15:12:22;3.23;;;2.00;;
9076;SDS011;4574;51.072;17.174;2023-08-17T15:14:50;2.70;;;1.90;;